createdAt,value
2018-11-10T00:00:24.887Z,8.90
2018-11-10T00:02:53.490Z,9.47
2018-11-10T00:05:22.594Z,11.13
2018-11-10T00:07:50.768Z,7.97
2018-11-10T00:10:19.433Z,7.93
2018-11-10T00:12:48.002Z,8.30
2018-11-10T00:15:16.128Z,8.93
2018-11-10T00:17:44.273Z,8.07
2018-11-10T00:20:13.409Z,9.00
2018-11-10T00:22:42.435Z,7.73
2018-11-10T00:25:11.937Z,8.43
2018-11-10T00:27:40.828Z,7.40
2018-11-10T00:30:10.502Z,7.43
2018-11-10T00:32:38.645Z,8.40
2018-11-10T00:35:07.935Z,11.88
2018-11-10T00:37:36.114Z,7.33
2018-11-10T00:40:05.052Z,10.10
2018-11-10T00:42:33.187Z,8.57
2018-11-10T00:45:02.875Z,8.50
2018-11-10T00:47:31.032Z,8.30
2018-11-10T00:49:59.368Z,9.30
2018-11-10T00:52:27.525Z,8.07
2018-11-10T00:54:56.538Z,8.50
2018-11-10T00:57:24.761Z,9.33
2018-11-10T00:59:52.987Z,7.70
2018-11-10T01:02:21.102Z,6.60
2018-11-10T01:04:49.233Z,7.43
2018-11-10T01:07:17.540Z,9.80
2018-11-10T01:09:46.270Z,7.63
2018-11-10T01:12:14.372Z,8.10
2018-11-10T01:14:43.550Z,7.00
2018-11-10T01:17:12.238Z,7.97
2018-11-10T01:19:40.450Z,8.13
2018-11-10T01:22:08.590Z,8.37
2018-11-10T01:24:36.708Z,7.17
2018-11-10T01:27:05.093Z,6.90
2018-11-10T01:29:33.356Z,6.30
2018-11-10T01:32:01.465Z,7.90
2018-11-10T01:34:29.578Z,7.23
2018-11-10T01:36:57.672Z,6.97
2018-11-10T01:39:25.860Z,5.37
2018-11-10T01:41:53.979Z,6.07
2018-11-10T01:44:22.075Z,6.40
2018-11-10T01:46:50.215Z,9.47
2018-11-10T01:49:18.522Z,7.77
2018-11-10T01:51:46.689Z,5.87
2018-11-10T01:54:15.223Z,5.47
2018-11-10T01:57:00.697Z,5.93
2018-11-10T01:59:29.460Z,7.20
2018-11-10T02:01:57.588Z,6.23
2018-11-10T02:04:26.710Z,6.53
2018-11-10T02:06:55.325Z,6.33
2018-11-10T02:09:24.090Z,5.07
2018-11-10T02:11:52.877Z,6.00
2018-11-10T02:14:21.334Z,5.23
2018-11-10T02:16:49.445Z,5.07
2018-11-10T02:19:17.718Z,6.53
2018-11-10T02:21:45.830Z,5.93
2018-11-10T02:24:13.954Z,6.20
2018-11-10T02:26:42.110Z,5.80
2018-11-10T02:29:10.206Z,7.70
2018-11-10T02:31:38.338Z,5.90
2018-11-10T02:34:06.696Z,7.37
2018-11-10T02:36:34.835Z,5.07
2018-11-10T02:39:03.356Z,6.23
2018-11-10T02:41:31.467Z,6.40
2018-11-10T02:43:59.599Z,5.10
2018-11-10T02:46:27.856Z,5.40
2018-11-10T02:48:57.218Z,4.87
2018-11-10T02:51:25.320Z,6.97
2018-11-10T02:53:53.428Z,7.13
2018-11-10T02:56:21.537Z,5.83
2018-11-10T02:58:49.667Z,4.93
2018-11-10T03:01:17.774Z,7.40
2018-11-10T03:03:45.961Z,4.83
2018-11-10T03:06:14.238Z,5.00
2018-11-10T03:08:42.466Z,5.57
2018-11-10T03:11:10.570Z,4.65
2018-11-10T03:13:38.718Z,6.80
2018-11-10T03:16:06.823Z,6.10
2018-11-10T03:18:34.988Z,4.20
2018-11-10T03:21:03.127Z,5.27
2018-11-10T03:23:31.247Z,4.37
2018-11-10T03:25:59.382Z,4.13
2018-11-10T03:28:27.551Z,5.20
2018-11-10T03:30:55.659Z,4.13
2018-11-10T03:33:23.783Z,3.90
2018-11-10T03:35:51.927Z,4.23
2018-11-10T03:38:20.047Z,5.43
2018-11-10T03:40:48.201Z,4.75
2018-11-10T03:43:16.300Z,6.07
2018-11-10T03:45:44.459Z,4.57
2018-11-10T03:48:12.762Z,9.20
2018-11-10T03:50:40.883Z,4.60
2018-11-10T03:53:09.007Z,5.30
2018-11-10T03:55:37.150Z,4.70
2018-11-10T03:58:05.349Z,4.37
2018-11-10T04:00:33.427Z,4.83
2018-11-10T04:03:01.550Z,5.20
2018-11-10T04:05:29.645Z,4.43
2018-11-10T04:07:57.738Z,5.10
2018-11-10T04:10:25.864Z,4.40
2018-11-10T04:12:53.960Z,4.53
2018-11-10T04:15:22.076Z,3.43
2018-11-10T04:17:50.164Z,3.70
2018-11-10T04:20:18.271Z,4.00
2018-11-10T04:22:46.367Z,5.43
2018-11-10T04:25:14.479Z,5.10
2018-11-10T04:27:42.591Z,6.17
2018-11-10T04:30:10.965Z,5.13
2018-11-10T04:32:39.073Z,4.17
2018-11-10T04:35:33.264Z,4.10
2018-11-10T04:44:27.419Z,4.07
2018-11-10T04:46:56.033Z,4.10
2018-11-10T04:49:24.212Z,4.30
2018-11-10T04:51:52.331Z,4.20
2018-11-10T04:54:20.536Z,6.07
2018-11-10T04:56:48.832Z,3.67
2018-11-10T04:59:17.075Z,5.47
2018-11-10T05:01:45.165Z,3.80
2018-11-10T05:04:13.264Z,4.50
2018-11-10T05:06:41.366Z,4.33
2018-11-10T05:09:10.768Z,3.90
2018-11-10T05:11:38.888Z,6.70
2018-11-10T05:14:08.239Z,3.27
2018-11-10T05:16:36.877Z,3.20
2018-11-10T05:19:05.910Z,3.63
2018-11-10T05:21:33.989Z,5.30
2018-11-10T05:24:02.103Z,5.60
2018-11-10T05:26:30.205Z,4.70
2018-11-10T05:29:00.419Z,5.60
2018-11-10T05:31:29.120Z,3.97
2018-11-10T05:33:57.240Z,4.73
2018-11-10T05:36:25.351Z,4.20
2018-11-10T05:38:53.557Z,4.07
2018-11-10T05:41:22.050Z,4.53
2018-11-10T05:43:50.142Z,4.97
2018-11-10T05:46:19.957Z,4.00
2018-11-10T05:48:48.140Z,5.87
2018-11-10T05:51:16.226Z,3.47
2018-11-10T05:53:44.351Z,4.37
2018-11-10T05:56:12.547Z,3.63
2018-11-10T05:58:41.058Z,5.33
2018-11-10T06:01:09.174Z,4.03
2018-11-10T06:03:37.808Z,4.50
2018-11-10T06:06:06.411Z,4.40
2018-11-10T06:08:34.547Z,4.40
2018-11-10T06:11:02.652Z,3.20
2018-11-10T06:13:30.759Z,4.30
2018-11-10T06:15:58.912Z,3.40
2018-11-10T06:18:28.166Z,3.40
2018-11-10T06:20:56.247Z,3.67
2018-11-10T06:23:24.371Z,4.87
2018-11-10T06:25:52.494Z,3.63
2018-11-10T06:28:20.737Z,3.77
2018-11-10T06:30:48.848Z,4.07
2018-11-10T06:33:16.948Z,5.03
2018-11-10T06:35:45.058Z,2.97
2018-11-10T06:38:13.230Z,3.40
2018-11-10T06:40:41.519Z,3.27
2018-11-10T06:43:09.786Z,3.20
2018-11-10T06:45:38.070Z,2.93
2018-11-10T06:48:06.323Z,2.70
2018-11-10T06:50:34.607Z,2.97
2018-11-10T06:53:02.967Z,2.63
2018-11-10T06:55:31.161Z,2.47
2018-11-10T06:57:59.450Z,2.23
2018-11-10T07:00:27.713Z,2.97
2018-11-10T07:02:55.985Z,2.10
2018-11-10T07:05:24.266Z,2.70
2018-11-10T07:07:52.559Z,2.20
2018-11-10T07:10:20.803Z,2.70
2018-11-10T07:12:49.116Z,2.23
2018-11-10T07:15:17.359Z,1.90
2018-11-10T07:17:45.660Z,2.10
2018-11-10T07:20:13.939Z,2.50
2018-11-10T07:22:42.061Z,2.17
2018-11-10T07:25:10.223Z,3.07
2018-11-10T07:27:38.463Z,1.70
2018-11-10T07:30:08.359Z,2.53
2018-11-10T07:32:36.522Z,2.40
2018-11-10T07:35:05.292Z,1.87
2018-11-10T07:37:33.550Z,1.70
2018-11-10T07:40:01.786Z,3.13
2018-11-10T07:42:29.890Z,2.00
2018-11-10T07:44:57.988Z,1.70
2018-11-10T07:47:26.106Z,2.00
2018-11-10T07:49:54.237Z,1.97
2018-11-10T07:52:22.337Z,2.07
2018-11-10T07:54:50.506Z,2.30
2018-11-10T07:57:18.574Z,2.70
2018-11-10T07:59:46.749Z,1.97
2018-11-10T08:02:14.853Z,1.70
2018-11-10T08:04:42.965Z,3.87
2018-11-10T08:07:11.063Z,2.27
2018-11-10T08:09:39.210Z,1.70
2018-11-10T08:12:07.329Z,1.57
2018-11-10T08:14:35.435Z,1.60
2018-11-10T08:17:03.534Z,2.00
2018-11-10T08:19:31.708Z,1.87
2018-11-10T08:21:59.815Z,1.77
2018-11-10T08:24:27.924Z,1.83
2018-11-10T08:26:56.125Z,2.93
2018-11-10T08:29:24.416Z,1.90
2018-11-10T08:31:52.523Z,1.80
2018-11-10T08:34:20.603Z,1.97
2018-11-10T08:36:48.695Z,2.03
2018-11-10T08:39:17.973Z,1.63
2018-11-10T08:46:03.666Z,3.53
2018-11-10T08:48:31.884Z,2.17
2018-11-10T08:51:07.212Z,1.70
2018-11-10T08:53:35.540Z,2.63
2018-11-10T08:56:06.233Z,3.40
2018-11-10T08:58:34.621Z,1.60
2018-11-10T09:01:53.382Z,2.90
2018-11-10T09:04:21.477Z,3.60
2018-11-10T09:07:14.039Z,1.63
2018-11-10T09:09:56.650Z,1.60
2018-11-10T09:12:24.881Z,1.70
2018-11-10T09:14:53.279Z,1.87
2018-11-10T09:17:23.935Z,2.30
2018-11-10T09:19:52.169Z,1.73
2018-11-10T09:22:21.512Z,2.13
2018-11-10T09:24:49.650Z,2.30
2018-11-10T09:27:17.751Z,1.60
2018-11-10T09:29:45.877Z,1.50
2018-11-10T09:32:14.015Z,2.07
2018-11-10T09:34:42.153Z,3.10
2018-11-10T09:37:10.256Z,2.10
2018-11-10T09:39:38.628Z,3.77
2018-11-10T09:42:15.789Z,3.40
2018-11-10T09:44:43.987Z,2.53
2018-11-10T09:47:12.138Z,2.40
2018-11-10T09:50:02.249Z,2.10
2018-11-10T09:52:30.433Z,1.67
2018-11-10T09:54:58.550Z,1.70
2018-11-10T09:57:31.362Z,2.70
2018-11-10T09:59:59.676Z,1.80
2018-11-10T10:02:28.198Z,1.90
2018-11-10T10:04:56.400Z,3.90
2018-11-10T10:07:24.532Z,2.17
2018-11-10T10:09:52.714Z,3.17
2018-11-10T10:12:20.997Z,2.03
2018-11-10T10:14:49.123Z,1.57
2018-11-10T10:17:17.281Z,1.97
2018-11-10T10:19:59.723Z,1.97
2018-11-10T10:22:29.647Z,1.70
2018-11-10T10:25:12.216Z,2.03
2018-11-10T10:30:39.047Z,1.83
2018-11-10T10:33:07.180Z,2.20
2018-11-10T10:35:35.481Z,1.60
2018-11-10T10:38:04.159Z,2.20
2018-11-10T10:40:32.313Z,1.70
2018-11-10T10:43:00.491Z,2.60
2018-11-10T10:45:28.599Z,3.10
2018-11-10T10:47:56.858Z,1.93
2018-11-10T10:50:24.986Z,2.40
2018-11-10T10:53:19.103Z,2.23
2018-11-10T10:55:49.962Z,2.40
2018-11-10T10:58:18.380Z,1.70
2018-11-10T11:00:51.899Z,2.17
2018-11-10T11:03:25.295Z,1.80
2018-11-10T11:06:01.559Z,5.13
2018-11-10T11:08:56.340Z,1.67
2018-11-10T11:11:26.454Z,2.17
2018-11-10T11:13:56.265Z,2.27
2018-11-10T11:20:06.486Z,3.07
2018-11-10T11:22:39.284Z,2.80
2018-11-10T11:30:33.539Z,2.10
2018-11-10T11:33:01.679Z,2.37
2018-11-10T11:35:29.870Z,2.33
2018-11-10T11:37:58.590Z,1.90
2018-11-10T11:40:27.137Z,2.43
2018-11-10T11:42:55.954Z,2.10
2018-11-10T11:45:24.074Z,2.57
2018-11-10T11:47:55.399Z,3.60
2018-11-10T11:50:43.106Z,2.40
2018-11-10T11:53:23.163Z,1.70
2018-11-10T12:20:12.783Z,1.70
2018-11-10T12:22:41.080Z,2.10
2018-11-10T12:25:33.907Z,4.37
2018-11-10T12:28:28.107Z,2.53
2018-11-10T12:30:56.583Z,1.60
2018-11-10T12:33:24.767Z,2.17
2018-11-10T12:35:54.728Z,2.97
2018-11-10T12:38:22.943Z,2.27
2018-11-10T12:40:51.057Z,2.03
2018-11-10T12:43:19.153Z,2.80
2018-11-10T12:45:47.252Z,4.00
2018-11-10T12:48:15.445Z,3.53
2018-11-10T12:50:43.655Z,4.07
2018-11-10T12:53:11.785Z,3.73
2018-11-10T12:55:39.886Z,4.50
2018-11-10T12:58:08.384Z,3.70
2018-11-10T13:00:37.057Z,2.90
2018-11-10T13:03:05.356Z,3.67
2018-11-10T13:05:33.748Z,1.87
2018-11-10T13:08:02.075Z,2.87
2018-11-10T13:10:30.210Z,3.33
2018-11-10T13:12:58.278Z,2.13
2018-11-10T13:15:27.017Z,2.67
2018-11-10T13:17:59.304Z,2.27
2018-11-10T13:20:27.583Z,2.00
2018-11-10T13:22:56.223Z,2.20
2018-11-10T13:25:25.632Z,3.40
2018-11-10T13:27:53.792Z,2.90
2018-11-10T13:30:22.218Z,2.37
2018-11-10T13:32:50.351Z,2.20
2018-11-10T13:35:19.798Z,5.20
2018-11-10T13:37:47.975Z,2.43
2018-11-10T13:40:17.553Z,3.33
2018-11-10T13:42:45.684Z,2.90
2018-11-10T13:45:17.677Z,2.73
2018-11-10T13:47:47.330Z,2.23
2018-11-10T13:54:06.831Z,3.47
2018-11-10T13:56:41.873Z,2.33
2018-11-10T13:59:22.552Z,3.60
2018-11-10T14:01:51.791Z,2.13
2018-11-10T14:04:32.043Z,2.90
2018-11-10T14:11:25.470Z,3.50
2018-11-10T14:13:54.875Z,2.50
2018-11-10T14:16:28.505Z,2.80
2018-11-10T14:19:01.462Z,2.50
2018-11-10T14:21:45.570Z,3.03
2018-11-10T14:24:15.249Z,2.30
2018-11-10T14:26:43.364Z,2.47
2018-11-10T14:29:24.700Z,2.30
2018-11-10T14:31:55.890Z,3.20
2018-11-10T14:34:36.655Z,3.40
2018-11-10T14:37:19.268Z,5.30
2018-11-10T14:39:48.211Z,2.50
2018-11-10T14:42:21.799Z,2.20
2018-11-10T14:47:47.150Z,4.90
2018-11-10T14:50:18.609Z,2.77
2018-11-10T14:52:47.344Z,3.17
2018-11-10T14:55:19.609Z,3.27
2018-11-10T14:58:06.759Z,4.70
2018-11-10T15:00:35.160Z,2.27
2018-11-10T15:03:05.636Z,2.97
2018-11-10T15:05:49.693Z,3.00
2018-11-10T15:08:18.613Z,3.10
2018-11-10T15:10:46.718Z,3.47
2018-11-10T15:13:15.127Z,2.13
2018-11-10T15:15:47.946Z,2.20
2018-11-10T15:18:17.244Z,2.80
2018-11-10T15:20:46.006Z,2.40
2018-11-10T15:23:14.096Z,3.53
2018-11-10T15:25:44.381Z,3.50
2018-11-10T15:28:12.567Z,2.63
2018-11-10T15:30:40.680Z,3.93
2018-11-10T15:33:08.812Z,2.03
2018-11-10T15:35:38.175Z,2.60
2018-11-10T15:38:06.444Z,2.43
2018-11-10T15:40:34.588Z,4.30
2018-11-10T15:43:02.862Z,2.10
2018-11-10T15:45:31.152Z,2.90
2018-11-10T15:48:01.669Z,2.57
2018-11-10T15:50:29.978Z,1.97
2018-11-10T15:52:58.220Z,2.90
2018-11-10T15:55:26.387Z,1.80
2018-11-10T15:57:54.464Z,2.00
2018-11-10T16:00:22.617Z,1.97
2018-11-10T16:02:50.920Z,2.83
2018-11-10T16:05:19.206Z,2.10
2018-11-10T16:07:47.467Z,3.00
2018-11-10T16:10:15.602Z,1.60
2018-11-10T16:12:44.141Z,2.20
2018-11-10T16:15:14.050Z,1.77
2018-11-10T16:17:42.309Z,2.33
2018-11-10T16:20:13.375Z,1.70
2018-11-10T16:22:41.834Z,1.53
2018-11-10T16:25:10.436Z,2.10
2018-11-10T16:27:38.750Z,1.63
2018-11-10T16:30:09.469Z,2.57
2018-11-10T16:32:37.612Z,1.93
2018-11-10T16:35:06.180Z,1.80
2018-11-10T16:37:34.273Z,1.67
2018-11-10T16:40:02.413Z,2.67
2018-11-10T16:42:30.528Z,1.63
2018-11-10T16:44:58.751Z,1.80
2018-11-10T16:47:26.739Z,1.70
2018-11-10T16:49:54.951Z,3.00
2018-11-10T16:55:36.011Z,1.80
2018-11-10T16:58:16.820Z,2.57
2018-11-10T17:00:45.201Z,1.97
2018-11-10T17:03:13.375Z,2.10
2018-11-10T17:05:41.472Z,2.20
2018-11-10T17:11:08.132Z,2.03
2018-11-10T17:13:37.005Z,2.23
2018-11-10T17:16:06.642Z,2.83
2018-11-10T17:18:35.397Z,3.10
2018-11-10T17:21:03.496Z,2.07
2018-11-10T17:23:31.616Z,3.30
2018-11-10T17:25:59.731Z,2.40
2018-11-10T17:28:30.470Z,2.87
2018-11-10T17:30:59.240Z,2.80
2018-11-10T17:33:27.334Z,3.00
2018-11-10T17:35:55.435Z,3.00
2018-11-10T17:38:23.680Z,3.00
2018-11-10T17:40:52.497Z,2.57
2018-11-10T17:43:20.616Z,2.60
2018-11-10T17:45:48.726Z,2.53
2018-11-10T17:48:21.940Z,4.27
2018-11-10T17:51:10.435Z,2.93
2018-11-10T17:53:41.849Z,3.13
2018-11-10T17:56:15.007Z,2.43
2018-11-10T17:58:52.508Z,4.03
2018-11-10T18:01:20.588Z,3.20
2018-11-10T18:03:48.733Z,2.73
2018-11-10T18:09:34.000Z,3.80
2018-11-10T18:12:02.078Z,3.13
2018-11-10T18:14:30.215Z,3.00
2018-11-10T18:16:58.363Z,2.60
2018-11-10T18:19:26.580Z,3.27
2018-11-10T18:21:54.682Z,3.90
2018-11-10T18:24:22.802Z,4.00
2018-11-10T18:26:52.979Z,3.83
2018-11-10T18:29:21.141Z,2.97
2018-11-10T18:31:49.228Z,3.40
2018-11-10T18:34:17.356Z,4.03
2018-11-10T18:36:45.493Z,3.60
2018-11-10T18:39:14.891Z,4.17
2018-11-10T18:41:42.993Z,3.73
2018-11-10T18:44:11.115Z,4.00
2018-11-10T18:46:42.455Z,10.90
2018-11-10T18:49:10.645Z,4.23
2018-11-10T18:51:38.796Z,3.17
2018-11-10T18:54:19.432Z,2.77
2018-11-10T18:56:49.788Z,2.67
2018-11-10T18:59:19.461Z,3.03
2018-11-10T19:01:49.994Z,3.03
2018-11-10T19:04:36.864Z,3.67
2018-11-10T19:07:07.766Z,3.17
2018-11-10T19:09:41.851Z,2.77
2018-11-10T19:12:09.920Z,3.20
2018-11-10T19:14:38.716Z,3.80
2018-11-10T19:17:08.168Z,3.53
2018-11-10T19:19:36.425Z,3.37
2018-11-10T19:22:04.676Z,3.93
2018-11-10T19:24:32.770Z,4.37
2018-11-10T19:27:00.865Z,4.20
2018-11-10T19:29:29.136Z,3.90
2018-11-10T19:31:57.242Z,4.50
2018-11-10T19:34:25.357Z,4.17
2018-11-10T19:36:54.587Z,5.20
2018-11-10T19:39:22.862Z,3.40
2018-11-10T19:41:52.624Z,4.23
2018-11-10T19:44:21.094Z,5.80
2018-11-10T19:46:49.513Z,3.60
2018-11-10T19:49:20.958Z,4.13
2018-11-10T19:52:09.795Z,3.27
2018-11-10T19:54:45.908Z,3.63
2018-11-10T19:57:34.642Z,4.57
2018-11-10T20:00:15.938Z,3.37
2018-11-10T20:02:54.027Z,3.63
2018-11-10T20:05:23.869Z,3.20
2018-11-10T20:08:08.602Z,3.60
2018-11-10T20:13:57.023Z,3.70
2018-11-10T20:16:25.201Z,3.10
2018-11-10T20:18:53.447Z,3.60
2018-11-10T20:21:21.563Z,5.03
2018-11-10T20:23:49.731Z,5.07
2018-11-10T20:26:17.878Z,6.07
2018-11-10T20:28:46.052Z,6.00
2018-11-10T20:31:14.170Z,4.57
2018-11-10T20:33:42.268Z,4.10
2018-11-10T20:36:10.383Z,3.70
2018-11-10T20:38:38.579Z,3.40
2018-11-10T20:41:06.990Z,3.87
2018-11-10T20:43:35.107Z,6.00
2018-11-10T20:46:03.274Z,8.33
2018-11-10T20:48:31.474Z,7.63
2018-11-10T20:50:59.685Z,6.90
2018-11-10T20:53:27.739Z,4.37
2018-11-10T20:55:55.854Z,7.33
2018-11-10T20:58:24.148Z,5.67
2018-11-10T21:00:52.259Z,3.33
2018-11-10T21:03:26.424Z,3.33
2018-11-10T21:05:54.662Z,3.70
2018-11-10T21:08:22.823Z,3.50
2018-11-10T21:10:50.931Z,4.23
2018-11-10T21:13:19.034Z,3.40
2018-11-10T21:15:47.153Z,3.87
2018-11-10T21:18:15.281Z,3.03
2018-11-10T21:20:43.420Z,3.40
2018-11-10T21:23:11.543Z,3.50
2018-11-10T21:25:39.678Z,3.00
2018-11-10T21:28:07.952Z,3.37
2018-11-10T21:30:36.135Z,2.60
2018-11-10T21:33:04.526Z,3.23
2018-11-10T21:35:32.759Z,3.10
2018-11-10T21:38:00.888Z,3.20
2018-11-10T21:40:29.011Z,3.80
2018-11-10T21:42:57.128Z,3.20
2018-11-10T21:45:25.302Z,2.97
2018-11-10T21:47:53.594Z,2.43
2018-11-10T21:50:21.729Z,2.37
2018-11-10T21:52:49.864Z,2.77
2018-11-10T21:55:19.245Z,2.50
2018-11-10T21:57:47.917Z,2.57
2018-11-10T22:00:17.746Z,2.67
2018-11-10T22:02:46.178Z,2.03
2018-11-10T22:05:14.307Z,2.80
2018-11-10T22:07:42.394Z,2.93
2018-11-10T22:10:12.989Z,3.77
2018-11-10T22:12:41.479Z,2.47
2018-11-10T22:18:00.622Z,3.10
2018-11-10T22:20:28.820Z,2.00
2018-11-10T22:23:19.994Z,4.83
2018-11-10T22:25:48.182Z,2.37
2018-11-10T22:28:16.380Z,2.83
2018-11-10T22:31:04.436Z,3.13
2018-11-10T22:33:32.531Z,4.53
2018-11-10T22:36:02.003Z,2.40
2018-11-10T22:41:31.307Z,3.03
2018-11-10T22:44:00.713Z,2.17
2018-11-10T22:46:28.813Z,2.47
2018-11-10T22:48:57.055Z,2.60
2018-11-10T22:51:25.156Z,2.30
2018-11-10T22:53:53.707Z,2.30
2018-11-10T22:56:22.359Z,2.30
2018-11-10T22:58:53.354Z,2.30
2018-11-10T23:01:28.437Z,2.23
2018-11-10T23:03:56.530Z,2.83
2018-11-10T23:06:24.672Z,4.03
2018-11-10T23:11:51.825Z,5.13
2018-11-10T23:14:19.916Z,3.40
2018-11-10T23:19:31.541Z,5.47
2018-11-10T23:22:06.287Z,2.70
2018-11-10T23:24:34.398Z,3.07
2018-11-10T23:29:49.086Z,3.17
2018-11-10T23:32:17.209Z,3.10
2018-11-10T23:38:33.139Z,4.60
2018-11-10T23:41:11.883Z,4.83
2018-11-10T23:49:35.536Z,3.53
2018-11-10T23:55:03.363Z,4.23
2018-11-10T23:57:51.496Z,4.47
